Terminal Aerodrome Forecast
Issued by NWS

Home | Current Version | Previous Version | Text Only | Print | Product List | Glossary On
Versions: 1 2 3 4 5 6 7 8 9 10 11 12 13 14 15 16 17 18
000
FTUS44 KLIX 291740
TAFMCB
TAF
KMCB 291740Z 2918/3018 00000KT P6SM FEW090 FEW110
     FM292100 24010KT P6SM VCSH BKN030 BKN080
     FM300200 VRB03KT P6SM BKN060 OVC100
     FM300700 09003KT P6SM VCSH BKN060
     FM301400 10003KT P6SM BKN050
     FM301600 09005KT P6SM VCTS BKN030CB=

USA.gov is the U.S. government's official web portal to all federal, state and local government web resources and services.